createdAt,value
2023-05-01T00:02:59.151Z,80.55
2023-05-01T00:07:59.986Z,79.88
2023-05-01T00:13:00.754Z,79.23
2023-05-01T00:18:01.618Z,78.42
2023-05-01T00:23:02.534Z,77.54
2023-05-01T00:28:03.440Z,76.26
2023-05-01T00:33:04.251Z,76.81
2023-05-01T00:38:05.166Z,75.88
2023-05-01T00:43:06.155Z,78.06
2023-05-01T00:48:08.618Z,79.59
2023-05-01T00:53:10.404Z,79.24
2023-05-01T00:58:12.389Z,81.06
2023-05-01T01:03:13.229Z,81.22
2023-05-01T01:08:33.151Z,81.75
2023-05-01T01:14:14.820Z,81.28
2023-05-01T01:20:13.219Z,81.46
2023-05-01T01:28:23.926Z,80.51
2023-05-01T01:33:54.072Z,80.38
2023-05-01T01:39:09.796Z,78.81
2023-05-01T01:44:22.420Z,79.90
2023-05-01T01:49:27.056Z,81.84
2023-05-01T01:54:35.667Z,81.26
2023-05-01T01:59:36.631Z,81.50
2023-05-01T02:04:40.538Z,81.09
2023-05-01T02:09:43.131Z,80.66
2023-05-01T02:14:45.424Z,80.27
2023-05-01T02:19:46.908Z,81.12
2023-05-01T02:24:48.672Z,81.91
2023-05-01T02:29:53.674Z,81.24
2023-05-01T02:34:54.575Z,79.90
2023-05-01T02:39:56.641Z,81.22
2023-05-01T02:45:01.670Z,82.70
2023-05-01T02:50:04.840Z,83.05
2023-05-01T02:55:07.638Z,84.50
2023-05-01T03:00:12.924Z,85.58
2023-05-01T03:05:14.145Z,85.45
2023-05-01T03:10:15.047Z,86.82
2023-05-01T03:15:17.793Z,88.14
2023-05-01T03:20:18.591Z,86.69
2023-05-01T03:25:19.379Z,87.14
2023-05-01T03:30:21.753Z,87.13
2023-05-01T03:35:22.699Z,86.26
2023-05-01T03:40:23.914Z,87.48
2023-05-01T03:45:56.593Z,88.73
2023-05-01T03:50:57.466Z,89.96
2023-05-01T03:55:58.275Z,91.28
2023-05-01T04:01:00.110Z,90.46
2023-05-01T04:06:01.839Z,88.83
2023-05-01T04:11:02.660Z,91.30
2023-05-01T04:16:05.723Z,91.72
2023-05-01T04:21:06.723Z,92.00
2023-05-01T04:26:07.601Z,93.12
2023-05-01T04:31:09.124Z,95.23
2023-05-01T04:36:10.006Z,94.56
2023-05-01T04:41:10.895Z,95.15
2023-05-01T04:46:11.922Z,93.10
2023-05-01T04:51:12.838Z,90.93
2023-05-01T04:56:13.906Z,88.84
2023-05-01T05:01:15.525Z,87.05
2023-05-01T05:06:16.434Z,89.53
2023-05-01T05:11:20.362Z,90.06
2023-05-01T05:16:44.532Z,86.37
2023-05-01T05:21:45.416Z,89.99
2023-05-01T05:26:46.502Z,87.91
2023-05-01T05:31:47.480Z,90.61
2023-05-01T05:36:49.144Z,85.41
2023-05-01T05:41:53.339Z,86.08
2023-05-01T05:46:54.801Z,83.57
2023-05-01T05:52:02.282Z,83.98
2023-05-01T05:57:03.451Z,83.54
2023-05-01T06:02:06.360Z,83.41
2023-05-01T06:07:07.726Z,84.90
2023-05-01T06:12:08.571Z,81.28
2023-05-01T06:17:09.823Z,84.67
2023-05-01T06:22:11.370Z,84.55
2023-05-01T06:27:17.495Z,80.07
2023-05-01T06:32:18.475Z,79.62
2023-05-01T06:37:19.561Z,82.49
2023-05-01T06:42:20.903Z,82.91
2023-05-01T06:47:21.803Z,79.58
2023-05-01T06:52:22.629Z,78.68
2023-05-01T06:57:23.364Z,76.69
2023-05-01T07:02:25.162Z,77.20
2023-05-01T07:07:25.957Z,71.37
2023-05-01T07:12:26.821Z,78.51
2023-05-01T07:17:28.757Z,72.03
2023-05-01T07:22:29.919Z,78.95
2023-05-01T07:27:30.644Z,79.59
2023-05-01T07:32:32.283Z,77.85
2023-05-01T07:37:33.162Z,76.55
2023-05-01T07:42:33.959Z,76.24
2023-05-01T07:47:34.778Z,74.31
2023-05-01T07:52:36.252Z,72.58
2023-05-01T07:57:37.834Z,68.15
2023-05-01T08:02:40.092Z,70.56
2023-05-01T08:07:40.920Z,68.97
2023-05-01T08:12:41.745Z,70.27
2023-05-01T08:17:42.575Z,71.32
2023-05-01T08:22:43.579Z,67.25
2023-05-01T08:27:44.398Z,70.31
2023-05-01T08:32:45.311Z,70.03
2023-05-01T08:37:46.048Z,72.81
2023-05-01T08:42:48.411Z,69.35
2023-05-01T08:47:51.514Z,65.86
2023-05-01T08:52:53.408Z,63.79
2023-05-01T08:57:56.967Z,62.97
2023-05-01T09:03:02.325Z,67.75
2023-05-01T09:08:03.400Z,65.05
2023-05-01T09:13:06.349Z,66.98
2023-05-01T09:18:08.301Z,62.09
2023-05-01T09:23:09.248Z,54.74
2023-05-01T09:28:10.076Z,60.08
2023-05-01T09:33:13.237Z,58.31
2023-05-01T09:38:22.539Z,58.13
2023-05-01T09:43:28.212Z,58.95
2023-05-01T09:48:30.658Z,61.83
2023-05-01T09:53:37.478Z,57.81
2023-05-01T09:58:38.448Z,54.73
2023-05-01T10:03:40.405Z,55.37
2023-05-01T10:08:45.960Z,56.46
2023-05-01T10:14:05.761Z,58.84
2023-05-01T10:19:07.001Z,55.24
2023-05-01T10:24:09.416Z,55.42
2023-05-01T10:29:11.847Z,56.28
2023-05-01T10:34:17.763Z,56.29
2023-05-01T10:39:35.478Z,53.73
2023-05-01T10:44:36.953Z,52.95
2023-05-01T10:50:04.050Z,53.84
2023-05-01T10:55:33.787Z,55.81
2023-05-01T11:00:34.616Z,55.59
2023-05-01T11:06:27.547Z,58.90
2023-05-01T11:11:49.909Z,53.98
2023-05-01T11:16:50.795Z,55.65
2023-05-01T11:21:53.453Z,57.56
2023-05-01T11:26:54.906Z,55.08
2023-05-01T11:31:55.817Z,53.89
2023-05-01T11:36:56.901Z,53.39
2023-05-01T11:42:09.938Z,50.00
2023-05-01T11:47:10.822Z,52.50
2023-05-01T11:52:12.102Z,50.83
2023-05-01T11:57:13.375Z,50.12
2023-05-01T12:02:20.352Z,46.98
2023-05-01T12:07:22.567Z,49.69
2023-05-01T12:12:23.467Z,50.30
2023-05-01T12:17:24.672Z,53.57
2023-05-01T12:22:25.703Z,49.56
2023-05-01T12:27:26.634Z,50.33
2023-05-01T12:32:32.172Z,53.83
2023-05-01T12:37:33.226Z,51.95
2023-05-01T12:42:34.133Z,49.56
2023-05-01T12:47:38.480Z,50.84
2023-05-01T12:52:39.337Z,48.59
2023-05-01T12:57:54.151Z,48.88
2023-05-01T13:03:02.763Z,50.92
2023-05-01T13:08:03.963Z,47.90
2023-05-01T13:13:04.818Z,47.28
2023-05-01T13:18:05.740Z,45.34
2023-05-01T13:23:12.588Z,48.65
2023-05-01T13:28:18.837Z,44.67
2023-05-01T13:33:19.911Z,42.71
2023-05-01T13:38:23.794Z,40.76
2023-05-01T13:43:24.650Z,40.72
2023-05-01T13:48:25.463Z,42.56
2023-05-01T13:53:26.280Z,41.62
2023-05-01T13:58:31.775Z,41.45
2023-05-01T14:03:39.989Z,41.98
2023-05-01T14:08:42.346Z,42.06
2023-05-01T14:13:48.733Z,41.18
2023-05-01T14:18:53.668Z,43.31
2023-05-01T14:23:56.356Z,42.26
2023-05-01T14:28:57.160Z,42.65
2023-05-01T14:34:06.174Z,42.62
2023-05-01T14:39:07.706Z,46.23
2023-05-01T14:44:17.239Z,44.26
2023-05-01T14:49:20.314Z,47.60
2023-05-01T14:54:21.315Z,43.98
2023-05-01T14:59:23.796Z,44.78
2023-05-01T15:04:24.639Z,44.69
2023-05-01T15:09:25.570Z,45.58
2023-05-01T15:14:26.474Z,47.48
2023-05-01T15:19:27.259Z,46.21
2023-05-01T15:24:27.990Z,47.53
2023-05-01T15:29:28.816Z,47.91
2023-05-01T15:34:29.710Z,46.92
2023-05-01T15:39:32.480Z,47.66
2023-05-01T15:44:33.210Z,46.94
2023-05-01T15:49:33.986Z,47.69
2023-05-01T15:54:34.771Z,48.36
2023-05-01T15:59:40.999Z,46.94
2023-05-01T16:04:45.649Z,48.57
2023-05-01T16:09:47.136Z,48.91
2023-05-01T16:14:48.139Z,48.70
2023-05-01T16:19:49.075Z,48.30
2023-05-01T16:24:50.114Z,46.73
2023-05-01T16:29:51.069Z,48.45
2023-05-01T16:34:51.866Z,49.14
2023-05-01T16:39:52.928Z,49.09
2023-05-01T16:44:55.671Z,50.38
2023-05-01T16:49:59.283Z,49.76
2023-05-01T16:55:01.349Z,51.52
2023-05-01T17:00:04.871Z,57.80
2023-05-01T17:05:06.740Z,62.90
2023-05-01T17:10:08.630Z,70.54
2023-05-01T17:15:09.705Z,73.77
2023-05-01T17:20:11.280Z,71.82
2023-05-01T17:25:12.417Z,74.26
2023-05-01T17:30:13.223Z,83.93
2023-05-01T17:35:14.872Z,91.16
2023-05-01T17:40:15.901Z,95.55
2023-05-01T17:45:16.852Z,100.00
2023-05-01T17:50:17.772Z,100.00
2023-05-01T17:55:18.742Z,100.00
2023-05-01T18:00:20.584Z,100.00
2023-05-01T18:05:21.831Z,100.00
2023-05-01T18:10:22.731Z,100.00
2023-05-01T18:15:23.692Z,100.00
2023-05-01T18:20:24.745Z,100.00
2023-05-01T18:25:25.776Z,100.00
2023-05-01T18:30:26.663Z,100.00
2023-05-01T18:35:27.400Z,100.00
2023-05-01T18:40:28.328Z,100.00
2023-05-01T18:45:29.971Z,100.00
2023-05-01T18:50:31.159Z,100.00
2023-05-01T18:55:32.315Z,100.00
2023-05-01T19:00:33.195Z,100.00
2023-05-01T19:05:34.012Z,100.00
2023-05-01T19:10:37.305Z,100.00
2023-05-01T19:15:38.157Z,100.00
2023-05-01T19:20:39.016Z,100.00
2023-05-01T19:25:39.829Z,100.00
2023-05-01T19:30:40.620Z,100.00
2023-05-01T19:35:41.374Z,100.00
2023-05-01T19:40:44.082Z,100.00
2023-05-01T19:45:44.855Z,100.00
2023-05-01T19:50:50.254Z,100.00
2023-05-01T19:55:51.002Z,100.00
2023-05-01T20:00:57.006Z,100.00
2023-05-01T20:05:57.908Z,100.00
2023-05-01T20:10:59.988Z,100.00
2023-05-01T20:16:00.998Z,100.00
2023-05-01T20:21:01.856Z,100.00
2023-05-01T20:26:03.512Z,100.00
2023-05-01T20:31:04.363Z,100.00
2023-05-01T20:36:06.140Z,100.00
2023-05-01T20:41:07.058Z,100.00
2023-05-01T20:46:07.891Z,100.00
2023-05-01T20:51:08.926Z,100.00
2023-05-01T20:56:09.662Z,100.00
2023-05-01T21:01:11.309Z,100.00
2023-05-01T21:06:15.215Z,100.00
2023-05-01T21:11:16.337Z,100.00
2023-05-01T21:16:18.826Z,100.00
2023-05-01T21:21:19.980Z,100.00
2023-05-01T21:26:20.792Z,100.00
2023-05-01T21:31:29.395Z,100.00
2023-05-01T21:36:33.022Z,100.00
2023-05-01T21:41:34.567Z,100.00
2023-05-01T21:46:36.290Z,100.00
2023-05-01T21:51:38.480Z,100.00
2023-05-01T21:56:39.276Z,100.00
2023-05-01T22:01:40.544Z,100.00
2023-05-01T22:06:41.523Z,100.00
2023-05-01T22:11:42.582Z,100.00
2023-05-01T22:16:43.464Z,100.00
2023-05-01T22:21:44.321Z,100.00
2023-05-01T22:26:45.452Z,100.00
2023-05-01T22:31:46.319Z,100.00
2023-05-01T22:36:47.124Z,100.00
2023-05-01T22:41:48.073Z,100.00
2023-05-01T22:46:49.131Z,100.00
2023-05-01T22:51:50.288Z,100.00
2023-05-01T22:56:51.083Z,100.00
2023-05-01T23:01:52.291Z,100.00
2023-05-01T23:06:53.151Z,100.00
2023-05-01T23:11:54.098Z,100.00
2023-05-01T23:16:54.815Z,100.00
2023-05-01T23:22:10.213Z,100.00
2023-05-01T23:27:12.693Z,100.00
2023-05-01T23:32:21.089Z,100.00
2023-05-01T23:37:21.932Z,100.00
2023-05-01T23:42:23.043Z,100.00
2023-05-01T23:47:23.975Z,100.00
2023-05-01T23:52:25.217Z,100.00
2023-05-01T23:57:26.279Z,100.00
